createdAt,value
2023-02-17T00:00:40.802Z,68.55
2023-02-17T00:03:08.458Z,68.82
2023-02-17T00:05:39.704Z,68.22
2023-02-17T00:08:07.302Z,68.08
2023-02-17T00:10:34.839Z,68.41
2023-02-17T00:13:03.834Z,67.96
2023-02-17T00:15:32.140Z,68.09
2023-02-17T00:18:00.022Z,67.79
2023-02-17T00:20:30.865Z,68.04
2023-02-17T00:22:58.417Z,67.89
2023-02-17T00:25:26.272Z,68.07
2023-02-17T00:27:53.865Z,67.81
2023-02-17T00:30:22.931Z,68.04
2023-02-17T00:32:50.521Z,67.92
2023-02-17T00:35:18.333Z,67.88
2023-02-17T00:37:45.936Z,67.65
2023-02-17T00:40:14.218Z,67.62
2023-02-17T00:42:41.892Z,67.64
2023-02-17T00:45:10.064Z,67.63
2023-02-17T00:47:39.081Z,67.42
2023-02-17T00:50:08.183Z,67.02
2023-02-17T00:52:35.960Z,67.31
2023-02-17T00:55:03.538Z,67.47
2023-02-17T00:57:32.328Z,67.76
2023-02-17T01:00:00.258Z,67.49
2023-02-17T01:02:27.802Z,68.18
2023-02-17T01:04:56.791Z,68.35
2023-02-17T01:07:24.453Z,68.51
2023-02-17T01:09:51.980Z,68.17
2023-02-17T01:12:19.544Z,68.43
2023-02-17T01:14:47.153Z,68.78
2023-02-17T01:17:14.738Z,69.06
2023-02-17T01:19:42.381Z,69.54
2023-02-17T01:22:11.923Z,69.46
2023-02-17T01:24:39.840Z,69.52
2023-02-17T01:27:07.494Z,69.62
2023-02-17T01:29:35.067Z,69.97
2023-02-17T01:32:02.766Z,70.72
2023-02-17T01:34:30.355Z,70.43
2023-02-17T01:36:58.026Z,70.86
2023-02-17T01:39:26.961Z,70.80
2023-02-17T01:41:54.592Z,71.37
2023-02-17T01:44:24.097Z,71.47
2023-02-17T01:46:53.177Z,71.68
2023-02-17T01:49:30.877Z,71.55
2023-02-17T01:52:05.950Z,72.49
2023-02-17T01:54:40.573Z,72.58
2023-02-17T01:57:08.419Z,72.50
2023-02-17T01:59:37.684Z,72.97
2023-02-17T02:02:07.312Z,72.88
2023-02-17T02:04:38.856Z,72.79
2023-02-17T02:07:11.254Z,72.95
2023-02-17T02:09:44.437Z,72.59
2023-02-17T02:12:23.501Z,73.01
2023-02-17T02:14:53.511Z,73.04
2023-02-17T02:17:34.213Z,73.14
2023-02-17T02:20:24.165Z,72.82
2023-02-17T02:23:14.071Z,72.75
2023-02-17T02:26:12.800Z,73.00
2023-02-17T02:29:00.224Z,73.03
2023-02-17T02:31:38.715Z,73.11
2023-02-17T02:34:11.020Z,73.29
2023-02-17T02:36:42.887Z,73.50
2023-02-17T02:39:13.970Z,73.92
2023-02-17T02:41:45.103Z,74.63
2023-02-17T02:44:15.758Z,74.56
2023-02-17T02:46:43.332Z,75.10
2023-02-17T02:49:12.935Z,75.08
2023-02-17T02:51:50.431Z,75.51
2023-02-17T02:54:34.506Z,75.57
2023-02-17T02:57:18.798Z,75.54
2023-02-17T03:00:00.944Z,76.00
2023-02-17T03:02:33.673Z,76.64
2023-02-17T03:05:11.031Z,77.07
2023-02-17T03:07:44.016Z,77.46
2023-02-17T03:10:12.031Z,77.71
2023-02-17T03:12:40.180Z,78.27
2023-02-17T03:15:16.188Z,78.19
2023-02-17T03:17:43.724Z,79.05
2023-02-17T03:20:14.718Z,79.52
2023-02-17T03:22:46.086Z,79.49
2023-02-17T03:25:14.100Z,79.74
2023-02-17T03:27:41.738Z,80.25
2023-02-17T03:30:11.100Z,80.07
2023-02-17T03:32:38.739Z,80.62
2023-02-17T03:35:07.127Z,81.36
2023-02-17T03:37:36.310Z,81.34
2023-02-17T03:40:04.195Z,81.74
2023-02-17T03:42:31.875Z,81.62
2023-02-17T03:44:59.407Z,81.26
2023-02-17T03:47:27.267Z,81.23
2023-02-17T03:49:54.945Z,81.56
2023-02-17T03:52:22.745Z,81.46
2023-02-17T03:54:52.627Z,81.44
2023-02-17T03:57:20.254Z,81.21
2023-02-17T03:59:47.829Z,81.39
2023-02-17T04:02:15.596Z,81.02
2023-02-17T04:04:43.210Z,80.68
2023-02-17T04:07:10.814Z,80.96
2023-02-17T04:09:38.425Z,80.72
2023-02-17T04:12:07.585Z,80.37
2023-02-17T04:14:35.245Z,80.57
2023-02-17T04:17:02.862Z,80.67
2023-02-17T04:19:30.485Z,81.07
2023-02-17T04:21:58.185Z,80.48
2023-02-17T04:24:25.741Z,81.00
2023-02-17T04:26:53.481Z,80.72
2023-02-17T04:29:22.426Z,81.39
2023-02-17T04:31:50.184Z,81.25
2023-02-17T04:34:17.829Z,81.37
2023-02-17T04:36:45.437Z,81.58
2023-02-17T04:39:13.101Z,81.79
2023-02-17T04:41:40.788Z,81.43
2023-02-17T04:44:08.322Z,81.55
2023-02-17T04:46:37.181Z,81.61
2023-02-17T04:49:04.799Z,81.70
2023-02-17T04:51:32.473Z,81.52
2023-02-17T04:53:59.983Z,81.19
2023-02-17T04:56:27.657Z,81.59
2023-02-17T04:58:55.180Z,81.18
2023-02-17T05:01:22.806Z,80.93
2023-02-17T05:03:51.713Z,81.24
2023-02-17T05:06:19.350Z,81.71
2023-02-17T05:08:48.165Z,81.65
2023-02-17T05:11:15.725Z,81.28
2023-02-17T05:13:43.302Z,81.49
2023-02-17T05:16:10.927Z,81.73
2023-02-17T05:18:38.822Z,81.23
2023-02-17T05:21:07.868Z,81.66
2023-02-17T05:23:41.031Z,81.46
2023-02-17T05:26:09.448Z,81.73
2023-02-17T05:28:37.715Z,81.48
2023-02-17T05:31:06.493Z,81.61
2023-02-17T05:33:34.464Z,81.65
2023-02-17T05:36:04.306Z,81.76
2023-02-17T05:38:33.965Z,81.77
2023-02-17T05:41:01.768Z,81.77
2023-02-17T05:43:29.657Z,81.53
2023-02-17T05:45:57.407Z,81.79
2023-02-17T05:48:25.239Z,81.61
2023-02-17T05:50:52.785Z,82.03
2023-02-17T05:53:20.321Z,82.00
2023-02-17T05:55:49.266Z,81.71
2023-02-17T05:58:17.052Z,81.79
2023-02-17T06:00:45.231Z,82.16
2023-02-17T06:03:12.854Z,81.97
2023-02-17T06:05:40.753Z,81.73
2023-02-17T06:08:09.024Z,81.98
2023-02-17T06:10:36.568Z,82.09
2023-02-17T06:13:05.523Z,81.84
2023-02-17T06:15:33.779Z,82.45
2023-02-17T06:18:01.349Z,82.26
2023-02-17T06:20:29.180Z,81.85
2023-02-17T06:22:56.882Z,82.17
2023-02-17T06:25:24.451Z,82.17
2023-02-17T06:27:51.975Z,81.85
2023-02-17T06:30:21.400Z,82.51
2023-02-17T06:32:49.237Z,82.27
2023-02-17T06:35:17.358Z,82.76
2023-02-17T06:37:44.960Z,82.52
2023-02-17T06:40:13.149Z,82.71
2023-02-17T06:42:40.737Z,82.74
2023-02-17T06:45:09.481Z,82.75
2023-02-17T06:47:38.457Z,82.61
2023-02-17T06:50:07.362Z,82.62
2023-02-17T06:52:34.949Z,82.53
2023-02-17T06:55:03.032Z,82.37
2023-02-17T06:57:30.626Z,82.40
2023-02-17T06:59:58.163Z,82.62
2023-02-17T07:02:25.816Z,82.49
2023-02-17T07:04:54.783Z,82.17
2023-02-17T07:07:22.399Z,82.83
2023-02-17T07:09:50.091Z,82.74
2023-02-17T07:12:17.711Z,82.43
2023-02-17T07:14:45.227Z,82.77
2023-02-17T07:17:12.740Z,83.09
2023-02-17T07:19:40.300Z,83.05
2023-02-17T07:22:09.233Z,83.07
2023-02-17T07:24:36.778Z,83.45
2023-02-17T07:27:05.962Z,83.36
2023-02-17T07:29:33.769Z,83.54
2023-02-17T07:32:01.749Z,83.74
2023-02-17T07:34:29.707Z,84.06
2023-02-17T07:36:57.303Z,83.89
2023-02-17T07:39:26.508Z,84.03
2023-02-17T07:41:54.071Z,84.28
2023-02-17T07:44:21.694Z,84.26
2023-02-17T07:46:49.367Z,84.43
2023-02-17T07:49:17.717Z,84.44
2023-02-17T07:51:45.519Z,84.11
2023-02-17T07:54:14.117Z,84.20
2023-02-17T07:56:43.069Z,84.13
2023-02-17T07:59:10.872Z,83.54
2023-02-17T08:01:38.938Z,83.42
2023-02-17T08:04:06.672Z,83.23
2023-02-17T08:06:34.257Z,82.55
2023-02-17T08:09:19.927Z,82.19
2023-02-17T08:12:06.676Z,81.64
2023-02-17T08:14:34.251Z,81.46
2023-02-17T08:17:01.816Z,81.03
2023-02-17T08:19:39.674Z,80.88
2023-02-17T08:22:14.465Z,80.91
2023-02-17T08:24:42.129Z,80.63
2023-02-17T08:27:11.093Z,80.77
2023-02-17T08:29:38.748Z,80.65
2023-02-17T08:32:06.997Z,80.83
2023-02-17T08:34:35.793Z,81.01
2023-02-17T08:37:04.709Z,80.63
2023-02-17T08:39:34.442Z,80.12
2023-02-17T08:42:02.646Z,80.68
2023-02-17T08:44:31.700Z,80.60
2023-02-17T08:46:59.330Z,80.59
2023-02-17T08:49:28.464Z,80.68
2023-02-17T08:51:56.055Z,80.58
2023-02-17T08:54:23.638Z,80.40
2023-02-17T08:56:51.225Z,80.26
2023-02-17T08:59:18.825Z,80.30
2023-02-17T09:01:47.805Z,80.37
2023-02-17T09:04:16.563Z,80.19
2023-02-17T09:06:46.897Z,80.40
2023-02-17T09:09:17.074Z,80.32
2023-02-17T09:11:45.445Z,80.57
2023-02-17T09:14:13.495Z,80.44
2023-02-17T09:16:41.781Z,80.41
2023-02-17T09:19:10.847Z,81.03
2023-02-17T09:21:38.846Z,80.72
2023-02-17T09:24:07.080Z,81.37
2023-02-17T09:26:36.126Z,81.43
2023-02-17T09:29:04.950Z,81.73
2023-02-17T09:31:32.966Z,82.71
2023-02-17T09:34:00.600Z,83.16
2023-02-17T09:36:31.809Z,83.34
2023-02-17T09:38:59.871Z,83.89
2023-02-17T09:41:33.003Z,84.65
2023-02-17T09:44:01.394Z,84.60
2023-02-17T09:46:32.882Z,84.19
2023-02-17T09:49:08.966Z,83.88
2023-02-17T09:51:43.985Z,83.18
2023-02-17T09:54:17.193Z,82.48
2023-02-17T09:56:48.402Z,82.54
2023-02-17T09:59:20.402Z,81.30
2023-02-17T10:01:50.586Z,80.93
2023-02-17T10:04:22.322Z,80.74
2023-02-17T10:06:54.658Z,79.98
2023-02-17T10:09:30.415Z,80.06
2023-02-17T10:12:03.975Z,79.58
2023-02-17T10:14:37.908Z,79.43
2023-02-17T10:17:11.439Z,79.16
2023-02-17T10:19:45.943Z,79.22
2023-02-17T10:22:19.231Z,78.61
2023-02-17T10:24:47.087Z,78.73
2023-02-17T10:27:29.440Z,78.16
2023-02-17T10:30:11.476Z,78.23
2023-02-17T10:32:50.698Z,77.55
2023-02-17T10:35:23.854Z,77.89
2023-02-17T10:38:00.347Z,77.99
2023-02-17T10:40:29.990Z,77.92
2023-02-17T10:43:00.945Z,77.75
2023-02-17T10:45:32.918Z,77.84
2023-02-17T10:48:07.824Z,78.38
2023-02-17T10:50:37.663Z,77.97
2023-02-17T10:53:15.364Z,77.83
2023-02-17T10:55:55.893Z,78.15
2023-02-17T10:58:28.715Z,78.34
2023-02-17T11:00:57.564Z,78.45
2023-02-17T11:03:27.563Z,78.13
2023-02-17T11:05:58.159Z,78.00
2023-02-17T11:08:32.542Z,78.11
2023-02-17T11:11:03.456Z,78.02
2023-02-17T11:13:35.631Z,77.84
2023-02-17T11:16:04.619Z,77.65
2023-02-17T11:18:35.412Z,77.71
2023-02-17T11:21:06.655Z,76.83
2023-02-17T11:23:37.332Z,76.58
2023-02-17T11:26:11.166Z,76.81
2023-02-17T11:28:38.806Z,76.57
2023-02-17T11:31:07.278Z,76.08
2023-02-17T11:33:37.799Z,76.91
2023-02-17T11:36:08.325Z,76.69
2023-02-17T11:38:45.537Z,76.82
2023-02-17T11:41:13.380Z,77.03
2023-02-17T11:43:52.641Z,76.25
2023-02-17T11:46:29.322Z,76.50
2023-02-17T11:49:37.123Z,75.96
2023-02-17T11:52:20.870Z,75.87
2023-02-17T11:55:03.026Z,75.42
2023-02-17T11:57:39.346Z,74.34
2023-02-17T12:00:17.795Z,73.69
2023-02-17T12:03:28.686Z,73.58
2023-02-17T12:06:07.149Z,72.71
2023-02-17T12:08:46.359Z,72.53
2023-02-17T12:11:23.346Z,72.57
2023-02-17T12:14:02.565Z,74.07
2023-02-17T12:16:41.051Z,74.12
2023-02-17T12:19:29.746Z,75.52
2023-02-17T12:22:30.099Z,74.13
2023-02-17T12:25:19.217Z,74.62
2023-02-17T12:28:01.328Z,73.70
2023-02-17T12:30:43.972Z,73.19
2023-02-17T12:33:32.680Z,75.38
2023-02-17T12:36:04.558Z,75.97
2023-02-17T12:38:34.382Z,75.89
2023-02-17T12:41:07.928Z,74.65
2023-02-17T12:43:43.175Z,73.19
2023-02-17T12:46:13.784Z,72.88
2023-02-17T12:48:46.882Z,72.71
2023-02-17T12:51:22.116Z,74.82
2023-02-17T12:53:54.754Z,74.64
2023-02-17T12:56:59.543Z,74.58
2023-02-17T12:59:34.381Z,75.33
2023-02-17T13:02:06.831Z,75.72
2023-02-17T13:04:36.073Z,75.31
2023-02-17T13:07:21.325Z,74.67
2023-02-17T13:09:50.602Z,76.44
2023-02-17T13:12:35.385Z,77.30
2023-02-17T13:15:08.283Z,76.72
2023-02-17T13:17:39.738Z,76.95
2023-02-17T13:20:27.232Z,76.58
2023-02-17T13:23:06.668Z,77.18
2023-02-17T13:25:37.625Z,76.78
2023-02-17T13:28:35.309Z,76.89
2023-02-17T13:31:18.947Z,76.41
2023-02-17T13:33:52.349Z,75.74
2023-02-17T13:36:34.704Z,75.22
2023-02-17T13:39:05.068Z,73.84
2023-02-17T13:41:44.984Z,74.53
2023-02-17T13:44:28.607Z,74.07
2023-02-17T13:47:00.700Z,75.08
2023-02-17T13:49:32.914Z,75.09
2023-02-17T13:52:12.577Z,74.74
2023-02-17T13:54:41.852Z,75.17
2023-02-17T13:57:23.795Z,75.60
2023-02-17T13:59:51.379Z,75.93
2023-02-17T14:02:35.393Z,76.05
2023-02-17T14:05:16.624Z,76.31
2023-02-17T14:07:47.365Z,76.67
2023-02-17T14:10:24.732Z,76.66
2023-02-17T14:12:53.239Z,77.65
2023-02-17T14:15:23.432Z,78.05
2023-02-17T14:17:52.461Z,77.74
2023-02-17T14:20:35.358Z,77.85
2023-02-17T14:23:06.144Z,78.66
2023-02-17T14:25:36.421Z,78.20
2023-02-17T14:28:05.422Z,77.55
2023-02-17T14:30:35.691Z,78.18
2023-02-17T14:33:06.957Z,78.46
2023-02-17T14:35:36.174Z,78.88
2023-02-17T14:38:19.849Z,78.78
2023-02-17T14:40:47.787Z,79.79
2023-02-17T14:43:15.520Z,80.29
2023-02-17T14:45:43.358Z,79.66
2023-02-17T14:48:12.514Z,79.28
2023-02-17T14:50:42.845Z,79.53
2023-02-17T14:53:14.707Z,80.08
2023-02-17T14:55:46.986Z,80.40
2023-02-17T14:58:19.981Z,79.14
2023-02-17T15:00:47.974Z,80.31
2023-02-17T15:03:17.168Z,80.83
2023-02-17T15:05:45.627Z,80.99
2023-02-17T15:08:15.874Z,81.43
2023-02-17T15:10:43.983Z,82.34
2023-02-17T15:13:14.787Z,82.67
2023-02-17T15:15:44.846Z,82.69
2023-02-17T15:18:12.860Z,82.59
2023-02-17T15:20:43.736Z,83.43
2023-02-17T15:23:14.293Z,83.15
2023-02-17T15:25:42.645Z,82.49
2023-02-17T15:28:13.281Z,81.98
2023-02-17T15:30:41.070Z,81.98
2023-02-17T15:33:12.824Z,82.19
2023-02-17T15:35:43.103Z,82.04
2023-02-17T15:38:12.697Z,81.89
2023-02-17T15:40:40.846Z,82.11
2023-02-17T15:43:14.487Z,82.44
2023-02-17T15:45:42.342Z,82.82
2023-02-17T15:48:14.100Z,82.56
2023-02-17T15:50:43.026Z,82.89
2023-02-17T15:53:11.042Z,83.07
2023-02-17T15:55:40.510Z,83.11
2023-02-17T15:58:15.125Z,83.17
2023-02-17T16:00:42.768Z,83.21
2023-02-17T16:03:11.912Z,83.19
2023-02-17T16:05:39.548Z,83.44
2023-02-17T16:08:09.258Z,83.26
2023-02-17T16:10:39.527Z,83.54
2023-02-17T16:13:07.892Z,83.27
2023-02-17T16:15:37.498Z,83.27
2023-02-17T16:18:05.265Z,83.57
2023-02-17T16:20:34.961Z,83.57
2023-02-17T16:23:03.277Z,83.42
2023-02-17T16:25:32.304Z,83.49
2023-02-17T16:27:59.949Z,83.86
2023-02-17T16:30:31.724Z,83.81
2023-02-17T16:32:59.541Z,83.49
2023-02-17T16:35:29.252Z,83.09
2023-02-17T16:37:59.564Z,83.16
2023-02-17T16:40:30.055Z,83.35
2023-02-17T16:42:59.287Z,82.95
2023-02-17T16:45:29.532Z,82.96
2023-02-17T16:47:58.913Z,83.06
2023-02-17T16:50:28.853Z,82.98
2023-02-17T16:52:58.528Z,82.14
2023-02-17T16:55:31.151Z,81.89
2023-02-17T16:58:00.600Z,81.91
2023-02-17T17:00:30.540Z,82.42
2023-02-17T17:02:58.929Z,82.29
2023-02-17T17:05:28.197Z,82.34
2023-02-17T17:07:56.384Z,82.17
2023-02-17T17:10:26.512Z,82.05
2023-02-17T17:12:54.302Z,82.38
2023-02-17T17:15:23.284Z,82.35
2023-02-17T17:17:56.556Z,81.95
2023-02-17T17:20:30.808Z,81.96
2023-02-17T17:22:59.113Z,81.85
2023-02-17T17:25:28.025Z,82.24
2023-02-17T17:27:55.995Z,81.91
2023-02-17T17:30:27.175Z,82.08
2023-02-17T17:32:55.047Z,81.86
2023-02-17T17:35:22.767Z,81.96
2023-02-17T17:37:50.898Z,81.70
2023-02-17T17:40:21.110Z,82.15
2023-02-17T17:42:48.659Z,81.86
2023-02-17T17:45:16.639Z,81.79
2023-02-17T17:47:46.266Z,82.05
2023-02-17T17:50:17.827Z,81.67
2023-02-17T17:52:45.532Z,81.61
2023-02-17T17:55:14.019Z,81.44
2023-02-17T17:57:42.260Z,81.18
2023-02-17T18:00:13.953Z,81.36
2023-02-17T18:02:41.527Z,81.15
2023-02-17T18:05:10.736Z,81.10
2023-02-17T18:07:39.671Z,81.17
2023-02-17T18:10:10.356Z,81.47
2023-02-17T18:12:38.744Z,81.05
2023-02-17T18:15:08.138Z,80.73
2023-02-17T18:17:39.702Z,80.49
2023-02-17T18:20:11.235Z,80.70
2023-02-17T18:22:39.000Z,80.32
2023-02-17T18:25:07.126Z,80.51
2023-02-17T18:27:39.365Z,79.87
2023-02-17T18:30:08.937Z,79.58
2023-02-17T18:32:36.523Z,79.33
2023-02-17T18:35:04.776Z,79.72
2023-02-17T18:37:34.287Z,79.72
2023-02-17T18:40:02.198Z,79.47
2023-02-17T18:42:29.937Z,79.42
2023-02-17T18:44:57.843Z,78.93
2023-02-17T18:47:25.799Z,79.21
2023-02-17T18:49:53.562Z,78.85
2023-02-17T18:52:21.090Z,79.07
2023-02-17T18:54:51.232Z,79.20
2023-02-17T18:57:18.844Z,79.07
2023-02-17T18:59:46.534Z,79.05
2023-02-17T19:02:14.269Z,79.07
2023-02-17T19:04:41.845Z,79.37
2023-02-17T19:07:09.589Z,79.06
2023-02-17T19:09:39.539Z,79.31
2023-02-17T19:12:13.311Z,78.96
2023-02-17T19:14:42.283Z,78.92
2023-02-17T19:17:11.303Z,78.95
2023-02-17T19:19:39.613Z,79.17
2023-02-17T19:22:08.743Z,78.55
2023-02-17T19:24:37.078Z,79.00
2023-02-17T19:27:05.152Z,78.97
2023-02-17T19:29:34.756Z,79.04
2023-02-17T19:32:03.675Z,78.78
2023-02-17T19:34:32.267Z,79.04
2023-02-17T19:36:59.987Z,79.45
2023-02-17T19:39:27.648Z,78.76
2023-02-17T19:41:55.263Z,78.96
2023-02-17T19:44:23.035Z,79.28
2023-02-17T19:46:53.889Z,79.07
2023-02-17T19:49:21.663Z,79.21
2023-02-17T19:51:49.981Z,79.44
2023-02-17T19:54:17.867Z,79.34
2023-02-17T19:56:45.678Z,79.61
2023-02-17T19:59:14.271Z,79.65
2023-02-17T20:01:43.388Z,79.42
2023-02-17T20:04:12.783Z,79.22
2023-02-17T20:06:43.196Z,79.48
2023-02-17T20:09:14.729Z,79.36
2023-02-17T20:11:43.151Z,79.51
2023-02-17T20:14:13.372Z,79.52
2023-02-17T20:16:41.602Z,79.71
2023-02-17T20:19:09.842Z,79.67
2023-02-17T20:21:39.903Z,80.13
2023-02-17T20:24:07.868Z,80.06
2023-02-17T20:26:40.723Z,79.81
2023-02-17T20:29:08.757Z,79.76
2023-02-17T20:31:37.998Z,79.57
2023-02-17T20:34:07.808Z,79.22
2023-02-17T20:36:36.291Z,79.69
2023-02-17T20:39:05.422Z,79.77
2023-02-17T20:41:33.544Z,80.03
2023-02-17T20:44:02.911Z,80.09
2023-02-17T20:46:31.116Z,80.11
2023-02-17T20:48:59.031Z,80.16
2023-02-17T20:51:26.977Z,80.31
2023-02-17T20:53:55.080Z,80.54
2023-02-17T20:56:33.719Z,80.68
2023-02-17T20:59:02.111Z,80.71
2023-02-17T21:01:30.805Z,80.79
2023-02-17T21:03:58.667Z,81.20
2023-02-17T21:06:29.228Z,81.64
2023-02-17T21:08:59.255Z,81.38
2023-02-17T21:11:29.203Z,81.68
2023-02-17T21:13:57.414Z,81.76
2023-02-17T21:16:27.372Z,82.10
2023-02-17T21:18:55.096Z,82.36
2023-02-17T21:21:22.633Z,82.46
2023-02-17T21:23:50.364Z,82.52
2023-02-17T21:26:18.284Z,82.45
2023-02-17T21:28:48.018Z,82.14
2023-02-17T21:31:16.964Z,82.77
2023-02-17T21:33:44.855Z,82.64
2023-02-17T21:36:14.082Z,82.69
2023-02-17T21:38:41.818Z,82.53
2023-02-17T21:41:11.926Z,82.60
2023-02-17T21:43:58.205Z,82.74
2023-02-17T21:46:28.051Z,82.42
2023-02-17T21:48:56.260Z,82.77
2023-02-17T21:51:24.594Z,82.51
2023-02-17T21:53:53.530Z,82.53
2023-02-17T21:56:22.346Z,82.46
2023-02-17T21:58:51.707Z,82.88
2023-02-17T22:01:19.792Z,82.68
2023-02-17T22:03:48.819Z,82.69
2023-02-17T22:06:18.226Z,82.65
2023-02-17T22:08:46.060Z,82.72
2023-02-17T22:11:18.850Z,82.88
2023-02-17T22:13:47.061Z,82.55
2023-02-17T22:16:15.244Z,82.59
2023-02-17T22:18:43.031Z,82.46
2023-02-17T22:21:14.267Z,82.71
2023-02-17T22:23:43.163Z,82.57
2023-02-17T22:26:13.732Z,82.74
2023-02-17T22:28:41.656Z,82.63
2023-02-17T22:31:09.860Z,82.67
2023-02-17T22:33:37.461Z,82.74
2023-02-17T22:36:07.652Z,82.67
2023-02-17T22:38:37.304Z,82.52
2023-02-17T22:41:07.492Z,82.34
2023-02-17T22:43:36.273Z,82.79
2023-02-17T22:46:04.870Z,82.83
2023-02-17T22:48:33.843Z,82.78
2023-02-17T22:51:06.123Z,83.22
2023-02-17T22:53:34.771Z,83.16
2023-02-17T22:56:05.538Z,83.20
2023-02-17T22:58:33.794Z,83.52
2023-02-17T23:01:05.627Z,83.33
2023-02-17T23:03:33.676Z,83.24
2023-02-17T23:06:01.680Z,83.44
2023-02-17T23:08:29.684Z,83.71
2023-02-17T23:10:57.351Z,83.68
2023-02-17T23:13:26.476Z,83.47
2023-02-17T23:15:54.051Z,83.45
2023-02-17T23:18:21.953Z,83.21
2023-02-17T23:20:51.562Z,83.25
2023-02-17T23:23:20.273Z,82.84
2023-02-17T23:25:50.955Z,82.98
2023-02-17T23:28:19.975Z,82.88
2023-02-17T23:30:49.837Z,82.63
2023-02-17T23:33:18.934Z,82.94
2023-02-17T23:35:47.793Z,83.39
2023-02-17T23:38:17.161Z,83.17
2023-02-17T23:40:49.005Z,82.94
2023-02-17T23:43:17.130Z,83.40
2023-02-17T23:45:45.035Z,83.57
2023-02-17T23:48:14.022Z,83.52
2023-02-17T23:50:41.876Z,83.23
2023-02-17T23:53:10.375Z,83.65
2023-02-17T23:55:37.970Z,83.42
2023-02-17T23:58:05.573Z,83.87
